Time;durP1;ratioP1;P1;durP2;ratioP2;P2;SDS_P1;SDS_P2;PMS_P1;PMS_P2;Temp;Humidity;BMP_temperature;BMP_pressure;BME280_temperature;BME280_humidity;BME280_pressure;Samples;Min_cycle;Max_cycle;Signal;HPM_P1;HPM_P2
2023/02/20 00:00:26;;;;;;;;;;;;;;;5.91;52.29;93545.50;2058715;69;20066;-82
2023/02/20 00:02:51;;;;;;;;;;;;;;;5.86;53.12;93547.16;2057414;69;20517;-79
2023/02/20 00:05:17;;;;;;;;;;;;;;;5.82;52.11;93551.66;2058154;69;20069;-79
2023/02/20 00:07:43;;;;;;;;;;;;;;;5.74;52.91;93553.69;2058412;69;20050;-81
2023/02/20 00:10:09;;;;;;;;;;;;;;;5.88;52.76;93562.63;2057741;69;20387;-80
2023/02/20 00:12:35;;;;;;;;;;;;;;;5.72;53.07;93559.81;2057878;69;20046;-79
2023/02/20 00:15:00;;;;;;;;;;;;;;;5.64;53.78;93553.50;2058546;69;20124;-81
2023/02/20 00:17:27;;;;;;;;;;;;;;;5.35;54.43;93553.66;2058130;69;20144;-80
2023/02/20 00:19:53;;;;;;;;;;;;;;;5.44;53.68;93548.81;2058140;69;20081;-80
2023/02/20 00:22:20;;;;;;;;;;;;;;;5.49;54.45;93545.09;2058209;69;20665;-78
2023/02/20 00:24:45;;;;;;;;;;;;;;;5.50;53.75;93549.41;2058262;69;20069;-78
2023/02/20 00:27:11;;;;;;;;;;;;;;;5.31;54.29;93547.72;2058090;69;20431;-79
2023/02/20 00:29:36;;;;;;;;;;;;;;;5.22;54.50;93545.47;2057556;69;20130;-81
2023/02/20 00:32:02;;;;;;;;;;;;;;;5.21;54.78;93549.53;2058325;69;20066;-77
2023/02/20 00:34:28;;;;;;;;;;;;;;;5.31;54.34;93555.31;2058303;69;20065;-78
2023/02/20 00:36:53;;;;;;;;;;;;;;;5.45;53.10;93561.47;2057689;69;20060;-79
2023/02/20 00:39:19;;;;;;;;;;;;;;;5.37;54.05;93569.88;2058198;69;20057;-84
2023/02/20 00:41:45;;;;;;;;;;;;;;;5.42;54.61;93573.78;2057604;69;20210;-81
2023/02/20 00:44:11;;;;;;;;;;;;;;;5.46;53.66;93571.38;2057697;69;20042;-82
2023/02/20 00:46:36;;;;;;;;;;;;;;;5.26;54.70;93587.69;2057702;69;20077;-81
2023/02/20 00:49:02;;;;;;;;;;;;;;;5.07;54.90;93585.22;2059087;69;20478;-80
2023/02/20 00:51:46;;;;;;;;;;;;;;;5.06;54.89;93580.94;2058814;69;20077;-81
2023/02/20 00:54:11;;;;;;;;;;;;;;;5.33;54.53;93594.63;2059309;69;20056;-78
2023/02/20 00:56:38;;;;;;;;;;;;;;;5.23;54.06;93590.88;2059304;69;20521;-81
2023/02/20 00:59:04;;;;;;;;;;;;;;;5.19;54.61;93584.91;2058547;69;20145;-80
2023/02/20 01:01:29;;;;;;;;;;;;;;;5.34;54.21;93596.09;2059079;69;20046;-79
2023/02/20 01:03:54;;;;;;;;;;;;;;;5.05;54.29;93596.22;2059160;69;20050;-80
2023/02/20 01:06:21;;;;;;;;;;;;;;;5.05;54.84;93596.22;2059212;69;20058;-81
2023/02/20 01:08:50;;;;;;;;;;;;;;;4.72;55.99;93584.00;2058760;69;20058;-81
2023/02/20 01:11:15;;;;;;;;;;;;;;;4.84;55.45;93590.00;2058592;69;20058;-81
2023/02/20 01:13:40;;;;;;;;;;;;;;;4.90;55.28;93584.97;2058606;69;20073;-81
2023/02/20 01:16:06;;;;;;;;;;;;;;;4.88;55.05;93578.47;2058674;69;20050;-81
2023/02/20 01:18:32;;;;;;;;;;;;;;;4.92;55.46;93584.44;2059089;69;20046;-81
2023/02/20 01:20:58;;;;;;;;;;;;;;;4.89;55.16;93589.06;2059187;69;20057;-81
2023/02/20 01:23:23;;;;;;;;;;;;;;;4.80;55.42;93581.97;2058708;69;20054;-80
2023/02/20 01:25:51;;;;;;;;;;;;;;;5.00;55.70;93585.22;2059443;69;20185;-81
2023/02/20 01:28:17;;;;;;;;;;;;;;;4.80;56.70;93584.03;2059241;69;20575;-81
2023/02/20 01:30:42;;;;;;;;;;;;;;;4.75;56.02;93594.03;2059070;69;20601;-79
2023/02/20 01:33:08;;;;;;;;;;;;;;;4.93;56.00;93597.84;2059134;69;20558;-82
2023/02/20 01:35:34;;;;;;;;;;;;;;;4.91;55.38;93585.75;2059346;69;20171;-81
2023/02/20 01:38:03;;;;;;;;;;;;;;;5.07;55.26;93581.69;2059254;69;20104;-82
2023/02/20 01:40:29;;;;;;;;;;;;;;;4.92;55.31;93576.06;2059180;69;20046;-81
2023/02/20 01:42:54;;;;;;;;;;;;;;;4.93;55.46;93575.50;2059099;69;20056;-81
2023/02/20 01:45:20;;;;;;;;;;;;;;;4.68;55.92;93592.00;2058532;69;20054;-83
2023/02/20 01:47:45;;;;;;;;;;;;;;;4.68;55.64;93577.28;2059171;69;20070;-78
2023/02/20 01:50:11;;;;;;;;;;;;;;;4.68;55.51;93591.25;2061039;69;20144;-79
2023/02/20 01:52:37;;;;;;;;;;;;;;;4.70;55.47;93592.16;2062100;69;20096;-79
2023/02/20 01:55:12;;;;;;;;;;;;;;;4.61;55.76;93595.47;2062677;69;20077;-80
2023/02/20 01:57:40;;;;;;;;;;;;;;;4.79;55.18;93594.44;2062470;69;20050;-79
2023/02/20 02:00:10;;;;;;;;;;;;;;;4.67;55.36;93598.09;2061447;69;20057;-77
2023/02/20 02:02:47;;;;;;;;;;;;;;;4.48;56.40;93606.75;2061991;69;20049;-81
2023/02/20 02:05:13;;;;;;;;;;;;;;;4.58;56.11;93597.34;2061384;69;20069;-81
2023/02/20 02:07:41;;;;;;;;;;;;;;;4.74;55.27;93600.19;2061970;69;20052;-82
2023/02/20 02:10:10;;;;;;;;;;;;;;;4.76;54.73;93597.56;2061734;69;20052;-82
2023/02/20 02:12:36;;;;;;;;;;;;;;;4.61;55.14;93595.47;2061226;69;20230;-82
2023/02/20 02:15:01;;;;;;;;;;;;;;;4.58;55.65;93602.91;2061362;69;20054;-82
2023/02/20 02:17:36;;;;;;;;;;;;;;;4.80;55.05;93595.19;2061310;69;20200;-79
2023/02/20 02:20:04;;;;;;;;;;;;;;;4.61;55.50;93601.06;2061219;69;20057;-82
2023/02/20 02:22:31;;;;;;;;;;;;;;;4.56;55.14;93604.75;2061300;69;20486;-82
2023/02/20 02:25:00;;;;;;;;;;;;;;;4.61;55.73;93605.88;2061342;69;20065;-82
2023/02/20 02:27:44;;;;;;;;;;;;;;;4.50;56.42;93604.16;2061869;69;20137;-81
2023/02/20 02:30:32;;;;;;;;;;;;;;;4.27;56.27;93602.00;2061889;69;20140;-82
2023/02/20 02:33:17;;;;;;;;;;;;;;;4.28;56.51;93605.53;2061761;69;20054;-80
2023/02/20 02:36:01;;;;;;;;;;;;;;;4.30;56.60;93605.72;2061923;69;20089;-82
2023/02/20 02:38:33;;;;;;;;;;;;;;;4.51;55.53;93602.88;2061796;69;20079;-82
2023/02/20 02:41:06;;;;;;;;;;;;;;;4.37;56.02;93610.59;2061638;69;20085;-79
2023/02/20 02:43:51;;;;;;;;;;;;;;;4.12;57.19;93610.22;2061647;69;20058;-81
2023/02/20 02:46:33;;;;;;;;;;;;;;;4.16;56.49;93619.00;2061112;69;20057;-81
2023/02/20 02:49:04;;;;;;;;;;;;;;;4.18;56.60;93616.44;2061498;69;20053;-81
2023/02/20 02:51:34;;;;;;;;;;;;;;;4.07;57.60;93617.44;2061011;69;20054;-81
2023/02/20 02:54:08;;;;;;;;;;;;;;;4.10;57.83;93607.25;2061609;69;20512;-81
2023/02/20 02:56:41;;;;;;;;;;;;;;;4.15;56.24;93602.84;2061067;69;20089;-79
2023/02/20 02:59:08;;;;;;;;;;;;;;;4.02;56.73;93603.66;2061828;69;20050;-81
2023/02/20 03:01:36;;;;;;;;;;;;;;;4.06;56.84;93604.06;2061769;69;20497;-78
2023/02/20 03:04:05;;;;;;;;;;;;;;;4.05;57.21;93608.91;2060441;69;20057;-76
2023/02/20 03:06:33;;;;;;;;;;;;;;;3.90;57.63;93611.59;2058035;69;20127;-82
2023/02/20 03:09:02;;;;;;;;;;;;;;;4.08;57.61;93615.44;2057851;69;20150;-82
2023/02/20 03:11:32;;;;;;;;;;;;;;;3.83;57.47;93626.94;2057916;69;20481;-82
2023/02/20 03:17:25;;;;;;;;;;;;;;;3.99;57.91;93638.22;2047632;70;20081;-80
2023/02/20 03:19:52;;;;;;;;;;;;;;;4.02;56.63;93646.22;2048230;70;20086;-82
2023/02/20 03:22:21;;;;;;;;;;;;;;;3.95;57.78;93649.69;2048359;70;20086;-80
2023/02/20 03:24:55;;;;;;;;;;;;;;;4.03;57.85;93644.94;2050957;70;20051;-81
2023/02/20 03:27:27;;;;;;;;;;;;;;;3.96;58.37;93645.63;2047976;70;20132;-82
2023/02/20 03:29:56;;;;;;;;;;;;;;;3.98;57.65;93653.41;2050876;70;20086;-80
2023/02/20 03:43:24;;;;;;;;;;;;;;;3.83;58.03;93643.66;2048252;70;20233;-82
2023/02/20 03:45:56;;;;;;;;;;;;;;;4.00;57.06;93659.22;2047951;70;20058;-80
2023/02/20 03:48:34;;;;;;;;;;;;;;;3.80;57.54;93644.75;2048154;70;20046;-81
2023/02/20 03:53:56;;;;;;;;;;;;;;;3.90;57.25;93633.13;2057888;69;20050;-80
2023/02/20 03:56:25;;;;;;;;;;;;;;;3.83;57.32;93621.38;2057810;69;20085;-78
2023/02/20 03:58:54;;;;;;;;;;;;;;;3.81;58.03;93620.44;2057730;69;20187;-81
2023/02/20 04:01:22;;;;;;;;;;;;;;;3.59;59.17;93610.59;2058402;69;20112;-76
2023/02/20 04:03:49;;;;;;;;;;;;;;;4.05;57.96;93613.72;2057586;69;20058;-78
2023/02/20 04:06:16;;;;;;;;;;;;;;;4.13;57.89;93617.31;2057679;69;20139;-79
2023/02/20 04:08:42;;;;;;;;;;;;;;;4.15;57.42;93619.56;2057888;69;20141;-75
2023/02/20 04:11:10;;;;;;;;;;;;;;;4.30;57.59;93622.44;2058255;69;20501;-78
2023/02/20 04:13:37;;;;;;;;;;;;;;;4.45;56.42;93633.69;2055172;69;20042;-81
2023/02/20 04:16:03;;;;;;;;;;;;;;;4.07;57.33;93634.16;2057915;69;20111;-83
2023/02/20 04:18:30;;;;;;;;;;;;;;;4.25;57.04;93629.66;2057763;69;20046;-81
2023/02/20 04:20:57;;;;;;;;;;;;;;;4.27;57.05;93634.69;2057841;69;20161;-81
2023/02/20 04:23:35;;;;;;;;;;;;;;;4.44;56.86;93640.56;2057790;69;20054;-81
2023/02/20 04:26:04;;;;;;;;;;;;;;;4.49;55.84;93636.88;2057988;69;20129;-81
2023/02/20 04:28:33;;;;;;;;;;;;;;;4.63;55.90;93645.88;2057899;69;20120;-81
2023/02/20 04:31:01;;;;;;;;;;;;;;;4.13;57.01;93634.03;2057968;69;20112;-82
2023/02/20 04:33:28;;;;;;;;;;;;;;;4.12;56.86;93640.88;2057529;69;20062;-80
2023/02/20 04:35:59;;;;;;;;;;;;;;;4.13;56.63;93634.03;2057671;69;20054;-81
2023/02/20 04:38:25;;;;;;;;;;;;;;;4.22;56.41;93644.69;2057851;69;20057;-80
2023/02/20 04:40:51;;;;;;;;;;;;;;;4.14;56.89;93638.31;2057944;69;20086;-82
2023/02/20 04:43:18;;;;;;;;;;;;;;;3.89;58.20;93640.72;2057864;69;20122;-82
2023/02/20 04:45:44;;;;;;;;;;;;;;;3.83;57.83;93629.72;2057633;69;20074;-83
2023/02/20 04:48:10;;;;;;;;;;;;;;;4.02;57.14;93632.28;2057633;69;20565;-83
2023/02/20 04:50:37;;;;;;;;;;;;;;;4.03;56.63;93639.38;2057948;69;20057;-81
2023/02/20 04:53:04;;;;;;;;;;;;;;;4.16;57.31;93640.56;2059477;69;20050;-78
2023/02/20 04:55:30;;;;;;;;;;;;;;;4.03;57.41;93638.59;2058730;69;20111;-81
2023/02/20 04:57:59;;;;;;;;;;;;;;;3.90;56.86;93636.66;2058179;69;20100;-84
2023/02/20 05:00:29;;;;;;;;;;;;;;;4.03;57.44;93646.94;2058104;69;20054;-84
2023/02/20 05:02:55;;;;;;;;;;;;;;;3.83;57.74;93651.25;2058413;69;20046;-83
2023/02/20 05:05:27;;;;;;;;;;;;;;;3.80;57.13;93653.13;2058695;69;20096;-84
2023/02/20 05:08:00;;;;;;;;;;;;;;;3.63;57.94;93658.34;2058540;69;20165;-84
2023/02/20 05:10:26;;;;;;;;;;;;;;;3.82;58.08;93678.38;2058409;69;20580;-83
2023/02/20 05:12:53;;;;;;;;;;;;;;;3.90;57.48;93683.28;2058380;69;20042;-84
2023/02/20 05:15:19;;;;;;;;;;;;;;;3.61;58.12;93685.22;2060161;69;20100;-84
2023/02/20 05:17:46;;;;;;;;;;;;;;;3.75;58.45;93672.72;2060998;69;20038;-83
2023/02/20 05:20:12;;;;;;;;;;;;;;;3.68;57.42;93671.38;2061492;69;20049;-83
2023/02/20 05:22:37;;;;;;;;;;;;;;;3.67;58.00;93683.06;2061516;69;20046;-83
2023/02/20 05:25:05;;;;;;;;;;;;;;;3.86;57.56;93691.97;2060835;69;20050;-82
2023/02/20 05:27:30;;;;;;;;;;;;;;;3.79;58.01;93675.91;2061285;69;20120;-81
2023/02/20 05:29:57;;;;;;;;;;;;;;;3.77;57.61;93682.03;2061703;69;20525;-81
2023/02/20 05:32:25;;;;;;;;;;;;;;;3.75;57.48;93681.81;2061323;69;20140;-80
2023/02/20 05:34:51;;;;;;;;;;;;;;;3.78;57.28;93686.31;2061445;69;20148;-82
2023/02/20 05:37:17;;;;;;;;;;;;;;;3.72;58.27;93682.94;2061821;69;20514;-81
2023/02/20 05:39:42;;;;;;;;;;;;;;;3.88;58.35;93685.84;2061801;69;20544;-80
2023/02/20 05:42:08;;;;;;;;;;;;;;;3.86;58.11;93685.66;2061743;69;20585;-81
2023/02/20 05:44:34;;;;;;;;;;;;;;;3.50;59.32;93689.00;2058428;69;20080;-84
2023/02/20 05:46:59;;;;;;;;;;;;;;;3.51;58.99;93674.53;2058424;69;20078;-81
2023/02/20 05:49:25;;;;;;;;;;;;;;;3.59;58.20;93682.97;2058651;69;20137;-82
2023/02/20 05:51:51;;;;;;;;;;;;;;;3.58;59.27;93684.28;2058887;69;20165;-83
2023/02/20 05:54:17;;;;;;;;;;;;;;;3.57;57.89;93688.31;2058513;69;20097;-84
2023/02/20 05:56:44;;;;;;;;;;;;;;;3.61;58.92;93688.00;2058758;69;20089;-82
2023/02/20 05:59:09;;;;;;;;;;;;;;;3.53;57.78;93685.91;2058666;69;20047;-83
2023/02/20 06:01:36;;;;;;;;;;;;;;;3.51;58.46;93691.25;2058676;69;20050;-82
2023/02/20 06:04:01;;;;;;;;;;;;;;;3.63;58.83;93688.97;2058311;69;20462;-82
2023/02/20 06:06:32;;;;;;;;;;;;;;;3.63;57.97;93691.75;2057689;69;20498;-81
2023/02/20 06:08:57;;;;;;;;;;;;;;;3.16;59.52;93698.13;2055406;69;20057;-79
2023/02/20 06:11:23;;;;;;;;;;;;;;;3.34;58.51;93692.91;2056700;69;20069;-82
2023/02/20 06:13:48;;;;;;;;;;;;;;;3.36;59.42;93699.44;2058028;69;20080;-82
2023/02/20 06:16:20;;;;;;;;;;;;;;;3.30;58.74;93694.00;2058666;69;20046;-78
2023/02/20 06:18:45;;;;;;;;;;;;;;;3.00;59.14;93688.81;2058752;69;20061;-80
2023/02/20 06:21:11;;;;;;;;;;;;;;;3.35;59.15;93697.22;2058605;69;20504;-83
2023/02/20 06:23:37;;;;;;;;;;;;;;;3.33;59.37;93705.34;2058786;69;20050;-82
2023/02/20 06:26:03;;;;;;;;;;;;;;;3.39;59.02;93703.16;2058484;69;20224;-82
2023/02/20 06:28:28;;;;;;;;;;;;;;;2.97;60.47;93709.34;2058563;69;20061;-80
2023/02/20 06:30:54;;;;;;;;;;;;;;;3.05;60.22;93706.69;2058560;69;20058;-81
2023/02/20 06:33:20;;;;;;;;;;;;;;;3.04;59.86;93710.75;2058377;69;20062;-82
2023/02/20 06:35:45;;;;;;;;;;;;;;;3.14;59.94;93722.94;2058634;69;20046;-83
2023/02/20 06:38:11;;;;;;;;;;;;;;;3.22;59.20;93723.78;2058522;69;20046;-79
2023/02/20 06:40:37;;;;;;;;;;;;;;;2.85;60.99;93724.06;2058553;69;20060;-81
2023/02/20 06:43:03;;;;;;;;;;;;;;;2.67;61.65;93726.41;2058163;69;20137;-79
2023/02/20 06:45:28;;;;;;;;;;;;;;;2.96;61.79;93724.56;2057733;69;20141;-79
2023/02/20 06:47:53;;;;;;;;;;;;;;;3.44;59.88;93738.50;2058555;69;20053;-78
2023/02/20 06:50:19;;;;;;;;;;;;;;;3.49;59.58;93732.81;2058732;69;20049;-78
2023/02/20 06:52:44;;;;;;;;;;;;;;;3.57;59.79;93738.44;2058738;69;20057;-77
2023/02/20 06:55:10;;;;;;;;;;;;;;;3.61;59.66;93743.69;2058792;69;20554;-81
2023/02/20 06:57:50;;;;;;;;;;;;;;;;;;;;;
2023/02/20 07:00:17;;;;;;;;;;;;;;;3.56;59.42;93750.88;2058884;69;20098;-79
2023/02/20 07:02:43;;;;;;;;;;;;;;;3.62;60.43;93754.31;2058504;69;20487;-84
2023/02/20 07:05:09;;;;;;;;;;;;;;;3.88;58.95;93755.50;2058479;69;20058;-80
2023/02/20 07:07:35;;;;;;;;;;;;;;;3.83;60.45;93745.97;2058544;69;20058;-80
2023/02/20 07:10:00;;;;;;;;;;;;;;;3.75;59.58;93754.25;2055254;69;20077;-79
2023/02/20 07:12:30;;;;;;;;;;;;;;;3.65;60.60;93750.44;2058354;69;20054;-83
2023/02/20 07:14:56;;;;;;;;;;;;;;;3.83;59.07;93743.19;2058305;69;20056;-80
2023/02/20 07:17:22;;;;;;;;;;;;;;;3.89;58.95;93740.25;2058561;69;20441;-79
2023/02/20 07:19:47;;;;;;;;;;;;;;;3.79;59.36;93743.50;2058452;69;20497;-80
2023/02/20 07:22:13;;;;;;;;;;;;;;;3.82;59.44;93745.22;2057821;69;20201;-81
2023/02/20 07:24:40;;;;;;;;;;;;;;;3.80;59.36;93738.69;2057629;69;20061;-81
2023/02/20 07:27:06;;;;;;;;;;;;;;;3.89;59.27;93741.00;2058144;69;20208;-80
2023/02/20 07:29:31;;;;;;;;;;;;;;;3.77;59.13;93739.78;2058167;69;20133;-80
2023/02/20 07:31:57;;;;;;;;;;;;;;;3.97;59.25;93732.72;2057428;69;20056;-82
2023/02/20 07:34:22;;;;;;;;;;;;;;;3.99;59.12;93730.91;2057989;69;20132;-82
2023/02/20 07:36:48;;;;;;;;;;;;;;;3.96;59.48;93725.66;2057110;69;20087;-80
2023/02/20 07:39:14;;;;;;;;;;;;;;;4.00;59.90;93726.81;2057695;69;20465;-81
2023/02/20 07:41:39;;;;;;;;;;;;;;;3.90;59.69;93730.63;2058126;69;20068;-80
2023/02/20 07:44:17;;;;;;;;;;;;;;;4.04;59.41;93727.25;2057498;69;20498;-79
2023/02/20 07:46:44;;;;;;;;;;;;;;;4.08;58.97;93726.91;2057945;69;20089;-80
2023/02/20 07:49:09;;;;;;;;;;;;;;;3.87;60.05;93737.28;2058439;69;20497;-79
2023/02/20 07:51:34;;;;;;;;;;;;;;;3.85;59.79;93731.50;2058579;69;20043;-81
2023/02/20 07:54:00;;;;;;;;;;;;;;;3.92;60.42;93723.22;2058826;69;20052;-80
2023/02/20 07:56:25;;;;;;;;;;;;;;;4.08;59.21;93724.13;2058454;69;20042;-81
2023/02/20 07:58:51;;;;;;;;;;;;;;;4.22;58.91;93719.22;2058234;69;20471;-80
2023/02/20 08:01:17;;;;;;;;;;;;;;;4.31;58.38;93716.69;2058400;69;20152;-81
2023/02/20 08:03:42;;;;;;;;;;;;;;;4.11;59.74;93714.66;2058413;69;20418;-79
2023/02/20 08:06:08;;;;;;;;;;;;;;;4.27;59.65;93713.50;2058772;69;20057;-80
2023/02/20 08:08:33;;;;;;;;;;;;;;;4.34;59.03;93712.03;2058477;69;20105;-79
2023/02/20 08:10:58;;;;;;;;;;;;;;;4.30;59.00;93725.59;2058536;69;20566;-81
2023/02/20 08:13:24;;;;;;;;;;;;;;;4.32;59.10;93715.38;2058529;69;20502;-79
2023/02/20 08:15:49;;;;;;;;;;;;;;;4.40;59.41;93712.66;2058520;69;20141;-81
2023/02/20 08:18:16;;;;;;;;;;;;;;;4.51;58.47;93717.19;2058458;69;20061;-78
2023/02/20 08:20:42;;;;;;;;;;;;;;;4.65;58.39;93715.81;2058595;69;20081;-80
2023/02/20 08:23:19;;;;;;;;;;;;;;;4.62;58.45;93707.78;2058672;69;20092;-81
2023/02/20 08:25:44;;;;;;;;;;;;;;;4.72;58.22;93703.97;2058206;69;20058;-79
2023/02/20 08:28:10;;;;;;;;;;;;;;;4.65;59.41;93695.53;2059745;69;20057;-77
2023/02/20 08:30:35;;;;;;;;;;;;;;;4.65;59.33;93689.97;2062489;69;20050;-76
2023/02/20 08:33:01;;;;;;;;;;;;;;;4.81;58.75;93688.75;2062077;69;20085;-79
2023/02/20 08:35:26;;;;;;;;;;;;;;;5.18;59.13;93689.47;2062155;69;20495;-76
2023/02/20 08:37:52;;;;;;;;;;;;;;;5.21;58.85;93691.91;2061149;69;20086;-78
2023/02/20 08:40:17;;;;;;;;;;;;;;;5.77;59.71;93689.47;2058531;69;20097;-79
2023/02/20 08:42:43;;;;;;;;;;;;;;;6.31;59.92;93695.91;2058582;69;20151;-76
2023/02/20 08:45:09;;;;;;;;;;;;;;;6.74;57.63;93697.00;2057848;69;20054;-78
2023/02/20 08:47:34;;;;;;;;;;;;;;;7.14;56.61;93691.47;2058565;69;20136;-79
2023/02/20 08:50:00;;;;;;;;;;;;;;;7.66;53.85;93700.25;2058390;69;20116;-80
2023/02/20 08:52:25;;;;;;;;;;;;;;;7.88;54.08;93690.97;2058519;69;20137;-79
2023/02/20 08:54:51;;;;;;;;;;;;;;;8.14;52.96;93698.06;2058476;69;20089;-80
2023/02/20 08:57:17;;;;;;;;;;;;;;;8.59;51.06;93690.66;2058604;69;20194;-79
2023/02/20 08:59:42;;;;;;;;;;;;;;;8.75;50.48;93693.31;2058466;69;20485;-77
2023/02/20 09:02:15;;;;;;;;;;;;;;;9.21;50.04;93698.47;2058392;69;20120;-77
2023/02/20 09:04:41;;;;;;;;;;;;;;;9.43;48.88;93706.66;2058453;69;20133;-80
2023/02/20 09:07:07;;;;;;;;;;;;;;;9.31;48.72;93708.50;2058490;69;20053;-78
2023/02/20 09:09:32;;;;;;;;;;;;;;;9.47;47.54;93714.69;2058594;69;20042;-80
2023/02/20 09:11:57;;;;;;;;;;;;;;;10.49;47.60;93705.09;2058843;69;20124;-78
2023/02/20 09:14:23;;;;;;;;;;;;;;;10.50;47.36;93700.97;2058974;69;20140;-79
2023/02/20 09:16:50;;;;;;;;;;;;;;;10.38;46.15;93690.22;2058801;69;20154;-80
2023/02/20 09:19:16;;;;;;;;;;;;;;;11.24;46.10;93695.94;2058950;69;20145;-79
2023/02/20 09:21:45;;;;;;;;;;;;;;;11.56;43.93;93695.50;2058300;69;20057;-80
2023/02/20 09:24:10;;;;;;;;;;;;;;;11.75;43.28;93688.38;2058783;69;20041;-79
2023/02/20 09:26:36;;;;;;;;;;;;;;;11.07;43.39;93699.63;2059069;69;20079;-78
2023/02/20 09:29:01;;;;;;;;;;;;;;;11.60;42.26;93692.97;2058883;69;20057;-78
2023/02/20 09:31:26;;;;;;;;;;;;;;;12.53;41.31;93686.84;2058788;69;20054;-78
2023/02/20 09:33:52;;;;;;;;;;;;;;;12.54;40.67;93679.13;2058723;69;20060;-78
2023/02/20 09:36:17;;;;;;;;;;;;;;;13.06;39.55;93672.75;2058821;69;20145;-79
2023/02/20 09:38:43;;;;;;;;;;;;;;;13.04;37.60;93669.78;2058383;69;20586;-80
2023/02/20 09:41:13;;;;;;;;;;;;;;;13.51;37.92;93659.50;2059109;69;20058;-78
2023/02/20 09:43:38;;;;;;;;;;;;;;;14.06;37.07;93665.09;2058947;69;20112;-79
2023/02/20 09:46:12;;;;;;;;;;;;;;;13.17;39.11;93660.78;2058775;69;20538;-78
2023/02/20 09:49:01;;;;;;;;;;;;;;;13.12;38.16;93659.75;2058764;69;20566;-80
2023/02/20 09:51:29;;;;;;;;;;;;;;;14.08;37.42;93653.91;2058826;69;20056;-79
2023/02/20 09:54:10;;;;;;;;;;;;;;;14.47;36.11;93654.22;2058933;69;20223;-79
2023/02/20 09:56:48;;;;;;;;;;;;;;;14.07;35.95;93649.63;2058997;69;20084;-77
2023/02/20 09:59:19;;;;;;;;;;;;;;;14.56;34.60;93647.72;2058914;69;20046;-80
2023/02/20 10:01:56;;;;;;;;;;;;;;;15.36;35.33;93647.50;2058675;69;20075;-82
2023/02/20 10:04:40;;;;;;;;;;;;;;;15.66;33.59;93636.44;2058228;69;20057;-79
2023/02/20 10:07:16;;;;;;;;;;;;;;;14.14;35.92;93628.81;2058935;69;20135;-80
2023/02/20 10:09:41;;;;;;;;;;;;;;;14.60;34.68;93627.38;2058561;69;20128;-80
2023/02/20 10:12:15;;;;;;;;;;;;;;;15.55;32.95;93626.59;2058857;69;20540;-80
2023/02/20 10:14:43;;;;;;;;;;;;;;;16.72;33.14;93636.56;2058843;69;20054;-80
2023/02/20 10:17:28;;;;;;;;;;;;;;;16.87;31.41;93626.72;2058556;69;20149;-79
2023/02/20 10:19:57;;;;;;;;;;;;;;;17.38;31.31;93632.88;2057351;69;20072;-79
2023/02/20 10:22:27;;;;;;;;;;;;;;;16.83;32.32;93629.34;2058514;69;20046;-80
2023/02/20 10:25:11;;;;;;;;;;;;;;;17.62;31.02;93624.09;2058673;69;20058;-80
2023/02/20 10:27:39;;;;;;;;;;;;;;;17.29;30.50;93625.31;2058611;69;20112;-78
2023/02/20 10:30:05;;;;;;;;;;;;;;;17.92;29.94;93614.22;2058544;69;20053;-80
2023/02/20 10:32:42;;;;;;;;;;;;;;;19.24;29.49;93610.19;2058454;69;20042;-80
2023/02/20 10:35:13;;;;;;;;;;;;;;;19.76;28.13;93611.00;2058545;69;20128;-79
2023/02/20 10:37:47;;;;;;;;;;;;;;;18.21;29.41;93598.44;2058546;69;20057;-80
2023/02/20 10:40:18;;;;;;;;;;;;;;;18.49;28.82;93596.91;2058529;69;20438;-79
2023/02/20 10:42:47;;;;;;;;;;;;;;;17.38;28.72;93598.00;2058625;69;20105;-80
2023/02/20 10:45:21;;;;;;;;;;;;;;;19.59;27.27;93600.97;2058650;69;20133;-80
2023/02/20 10:47:50;;;;;;;;;;;;;;;19.54;26.98;93588.66;2058036;69;20062;-80
2023/02/20 10:50:20;;;;;;;;;;;;;;;19.85;27.60;93592.78;2058128;69;20062;-80
2023/02/20 10:52:48;;;;;;;;;;;;;;;20.67;25.87;93584.53;2058772;69;20137;-82
2023/02/20 10:55:25;;;;;;;;;;;;;;;21.58;24.54;93587.09;2058653;69;20057;-80
2023/02/20 10:57:57;;;;;;;;;;;;;;;21.67;24.87;93583.09;2058675;69;20085;-79
2023/02/20 11:00:34;;;;;;;;;;;;;;;23.63;23.22;93591.09;2058757;69;20075;-80
2023/02/20 11:03:05;;;;;;;;;;;;;;;24.39;23.20;93579.34;2058587;69;20081;-81
2023/02/20 11:05:33;;;;;;;;;;;;;;;22.73;23.60;93574.25;2058595;69;20458;-79
2023/02/20 11:07:59;;;;;;;;;;;;;;;21.41;25.07;93576.47;2058590;69;20207;-80
2023/02/20 11:10:24;;;;;;;;;;;;;;;24.16;22.23;93569.44;2058643;69;20159;-80
2023/02/20 11:12:51;;;;;;;;;;;;;;;24.39;22.62;93571.44;2058710;69;20042;-80
2023/02/20 11:15:24;;;;;;;;;;;;;;;25.29;21.47;93571.22;2058677;69;20054;-76
2023/02/20 11:17:55;;;;;;;;;;;;;;;26.43;21.33;93571.75;2058483;69;20054;-79
2023/02/20 11:20:40;;;;;;;;;;;;;;;24.73;22.23;93565.72;2058693;69;20057;-80
2023/02/20 11:23:06;;;;;;;;;;;;;;;27.45;19.82;93559.44;2058716;69;20050;-78
2023/02/20 11:25:36;;;;;;;;;;;;;;;28.98;18.38;93554.22;2058706;69;20057;-76
2023/02/20 11:28:17;;;;;;;;;;;;;;;28.69;18.91;93553.31;2058600;69;20474;-79
2023/02/20 11:30:43;;;;;;;;;;;;;;;29.87;17.76;93556.72;2058733;69;20563;-79
2023/02/20 11:33:12;;;;;;;;;;;;;;;28.71;18.57;93535.94;2057782;69;20453;-78
2023/02/20 11:35:38;;;;;;;;;;;;;;;30.41;17.68;93535.00;2058691;69;20474;-80
2023/02/20 11:38:27;;;;;;;;;;;;;;;30.97;16.87;93526.91;2058597;69;20050;-80
2023/02/20 11:40:52;;;;;;;;;;;;;;;31.77;16.00;93525.13;2057539;69;20471;-79
2023/02/20 11:43:20;;;;;;;;;;;;;;;29.46;17.60;93509.44;2058546;69;20053;-79
2023/02/20 11:45:45;;;;;;;;;;;;;;;31.57;16.88;93510.72;2058601;69;20054;-76
2023/02/20 11:48:12;;;;;;;;;;;;;;;31.19;16.15;93506.47;2058522;69;20069;-74
2023/02/20 11:50:37;;;;;;;;;;;;;;;30.39;15.68;93494.34;2058548;69;20060;-78
2023/02/20 11:53:06;;;;;;;;;;;;;;;31.18;15.61;93495.59;2058543;69;20433;-75
2023/02/20 11:55:32;;;;;;;;;;;;;;;29.59;16.80;93485.56;2058423;69;20050;-78
2023/02/20 11:57:57;;;;;;;;;;;;;;;32.57;15.66;93483.75;2058515;69;20124;-79
2023/02/20 12:00:27;;;;;;;;;;;;;;;34.49;15.04;93481.25;2058447;69;20058;-78
2023/02/20 12:02:54;;;;;;;;;;;;;;;30.83;17.00;93484.81;2058434;69;20050;-81
2023/02/20 12:05:20;;;;;;;;;;;;;;;34.64;14.40;93474.41;2058501;69;20062;-77
2023/02/20 12:07:52;;;;;;;;;;;;;;;34.78;14.45;93478.53;2058616;69;20054;-77
2023/02/20 12:10:17;;;;;;;;;;;;;;;36.14;13.05;93466.88;2057984;69;20049;-78
2023/02/20 12:12:43;;;;;;;;;;;;;;;34.64;13.19;93456.84;2058496;69;20475;-80
2023/02/20 12:15:15;;;;;;;;;;;;;;;35.83;12.72;93463.22;2058586;69;20495;-76
2023/02/20 12:18:01;;;;;;;;;;;;;;;34.71;13.97;93454.53;2058428;69;20437;-77
2023/02/20 12:20:28;;;;;;;;;;;;;;;35.87;14.19;93442.63;2054500;69;20050;-76
2023/02/20 12:23:04;;;;;;;;;;;;;;;35.08;13.41;93439.94;2057870;69;20522;-77
2023/02/20 12:25:40;;;;;;;;;;;;;;;35.81;12.86;93445.69;2058419;69;20054;-78
2023/02/20 12:28:09;;;;;;;;;;;;;;;35.36;13.44;93440.81;2058425;69;20058;-78
2023/02/20 12:30:58;;;;;;;;;;;;;;;34.99;13.08;93429.88;2057891;69;20136;-77
2023/02/20 12:33:39;;;;;;;;;;;;;;;36.37;12.53;93437.03;2057844;69;20448;-79
2023/02/20 12:36:08;;;;;;;;;;;;;;;34.53;13.07;93434.41;2058565;69;20068;-78
2023/02/20 12:38:47;;;;;;;;;;;;;;;33.06;14.20;93422.00;2058811;69;20054;-77
2023/02/20 12:41:15;;;;;;;;;;;;;;;32.84;13.88;93420.78;2058759;69;20038;-80
2023/02/20 12:43:56;;;;;;;;;;;;;;;34.43;13.42;93417.75;2058259;69;20050;-80
2023/02/20 12:46:41;;;;;;;;;;;;;;;35.32;12.67;93418.19;2058474;69;20042;-78
2023/02/20 12:49:17;;;;;;;;;;;;;;;33.63;12.62;93412.47;2058443;69;20050;-77
2023/02/20 12:51:46;;;;;;;;;;;;;;;33.04;13.40;93416.94;2058359;69;20046;-77
2023/02/20 12:54:15;;;;;;;;;;;;;;;30.48;15.00;93408.63;2058427;69;20525;-78
2023/02/20 12:56:53;;;;;;;;;;;;;;;30.85;15.00;93408.53;2058337;69;20057;-77
2023/02/20 12:59:25;;;;;;;;;;;;;;;31.74;15.21;93403.63;2058330;69;20052;-79
2023/02/20 13:01:52;;;;;;;;;;;;;;;31.81;13.98;93393.38;2058200;69;20073;-78
2023/02/20 13:04:31;;;;;;;;;;;;;;;31.84;14.78;93400.66;2058291;69;20050;-77
2023/02/20 13:07:02;;;;;;;;;;;;;;;31.26;15.05;93399.59;2058253;69;20468;-77
2023/02/20 13:09:37;;;;;;;;;;;;;;;33.54;14.27;93400.22;2057771;69;20383;-78
2023/02/20 13:12:11;;;;;;;;;;;;;;;32.53;14.65;93388.38;2058278;69;20042;-79
2023/02/20 13:14:49;;;;;;;;;;;;;;;32.16;15.94;93376.34;2058437;69;20153;-78
2023/02/20 13:17:44;;;;;;;;;;;;;;;32.17;14.57;93374.88;2058200;69;20425;-79
2023/02/20 13:20:15;;;;;;;;;;;;;;;32.87;14.11;93377.75;2056706;69;20046;-79